sensor_id;sensor_type;location;lat;lon;timestamp;temperature;humidity
14172;DHT22;7165;52.388;4.928;2023-06-05T00:00:03;12.20;99.90
14172;DHT22;7165;52.388;4.928;2023-06-05T00:02:32;12.20;99.90
14172;DHT22;7165;52.388;4.928;2023-06-05T00:05:00;12.20;99.90
14172;DHT22;7165;52.388;4.928;2023-06-05T00:07:27;12.20;99.90
14172;DHT22;7165;52.388;4.928;2023-06-05T00:09:53;12.20;99.90
14172;DHT22;7165;52.388;4.928;2023-06-05T00:12:20;12.30;99.90
14172;DHT22;7165;52.388;4.928;2023-06-05T00:14:46;12.30;99.90
14172;DHT22;7165;52.388;4.928;2023-06-05T00:17:13;12.30;99.90
14172;DHT22;7165;52.388;4.928;2023-06-05T00:19:39;12.30;99.90
14172;DHT22;7165;52.388;4.928;2023-06-05T00:22:07;12.30;99.90
14172;DHT22;7165;52.388;4.928;2023-06-05T00:24:34;12.20;99.90
14172;DHT22;7165;52.388;4.928;2023-06-05T00:27:00;12.20;99.90
14172;DHT22;7165;52.388;4.928;2023-06-05T00:29:27;12.20;99.90
14172;DHT22;7165;52.388;4.928;2023-06-05T00:31:53;12.10;99.90
14172;DHT22;7165;52.388;4.928;2023-06-05T00:34:20;12.10;99.90
14172;DHT22;7165;52.388;4.928;2023-06-05T00:36:46;12.10;99.90
14172;DHT22;7165;52.388;4.928;2023-06-05T00:39:17;12.00;99.90
14172;DHT22;7165;52.388;4.928;2023-06-05T00:41:44;12.00;99.90
14172;DHT22;7165;52.388;4.928;2023-06-05T00:44:11;12.00;99.90
14172;DHT22;7165;52.388;4.928;2023-06-05T00:46:38;12.00;99.90
14172;DHT22;7165;52.388;4.928;2023-06-05T00:49:04;12.00;99.90
14172;DHT22;7165;52.388;4.928;2023-06-05T00:51:31;12.00;99.90
14172;DHT22;7165;52.388;4.928;2023-06-05T00:53:58;12.00;99.90
14172;DHT22;7165;52.388;4.928;2023-06-05T00:56:27;11.90;99.90
14172;DHT22;7165;52.388;4.928;2023-06-05T00:58:53;11.90;99.90
14172;DHT22;7165;52.388;4.928;2023-06-05T01:01:20;11.90;99.90
14172;DHT22;7165;52.388;4.928;2023-06-05T01:03:49;11.90;99.90
14172;DHT22;7165;52.388;4.928;2023-06-05T01:06:18;11.90;99.90
14172;DHT22;7165;52.388;4.928;2023-06-05T01:08:45;11.90;99.90
14172;DHT22;7165;52.388;4.928;2023-06-05T01:11:13;11.90;99.90
14172;DHT22;7165;52.388;4.928;2023-06-05T01:13:46;11.90;99.90
14172;DHT22;7165;52.388;4.928;2023-06-05T01:16:17;11.90;99.90
14172;DHT22;7165;52.388;4.928;2023-06-05T01:18:44;11.90;99.90
14172;DHT22;7165;52.388;4.928;2023-06-05T01:21:12;11.90;99.90
14172;DHT22;7165;52.388;4.928;2023-06-05T01:23:43;11.90;99.90
14172;DHT22;7165;52.388;4.928;2023-06-05T01:26:11;11.90;99.90
14172;DHT22;7165;52.388;4.928;2023-06-05T01:28:38;11.90;99.90
14172;DHT22;7165;52.388;4.928;2023-06-05T01:31:08;11.90;99.90
14172;DHT22;7165;52.388;4.928;2023-06-05T01:33:42;11.90;99.90
14172;DHT22;7165;52.388;4.928;2023-06-05T01:36:15;11.90;99.90
14172;DHT22;7165;52.388;4.928;2023-06-05T01:38:43;11.90;99.90
14172;DHT22;7165;52.388;4.928;2023-06-05T01:41:10;11.90;99.90
14172;DHT22;7165;52.388;4.928;2023-06-05T01:43:37;11.90;99.90
14172;DHT22;7165;52.388;4.928;2023-06-05T01:46:04;11.90;99.90
14172;DHT22;7165;52.388;4.928;2023-06-05T01:48:32;11.90;99.90
14172;DHT22;7165;52.388;4.928;2023-06-05T01:50:59;11.90;99.90
14172;DHT22;7165;52.388;4.928;2023-06-05T01:53:26;11.90;99.90
14172;DHT22;7165;52.388;4.928;2023-06-05T01:55:54;11.90;99.90
14172;DHT22;7165;52.388;4.928;2023-06-05T01:58:22;11.90;99.90
14172;DHT22;7165;52.388;4.928;2023-06-05T02:00:51;11.80;99.90
14172;DHT22;7165;52.388;4.928;2023-06-05T02:03:19;11.80;99.90
14172;DHT22;7165;52.388;4.928;2023-06-05T02:05:45;11.80;99.90
14172;DHT22;7165;52.388;4.928;2023-06-05T02:08:12;11.80;99.90
14172;DHT22;7165;52.388;4.928;2023-06-05T02:10:44;11.80;99.90
14172;DHT22;7165;52.388;4.928;2023-06-05T02:13:12;11.80;99.90
14172;DHT22;7165;52.388;4.928;2023-06-05T02:15:40;11.90;99.90
14172;DHT22;7165;52.388;4.928;2023-06-05T02:18:07;11.90;99.90
14172;DHT22;7165;52.388;4.928;2023-06-05T02:20:33;11.90;99.90
14172;DHT22;7165;52.388;4.928;2023-06-05T02:23:01;11.90;99.90
14172;DHT22;7165;52.388;4.928;2023-06-05T02:25:27;11.90;99.90
14172;DHT22;7165;52.388;4.928;2023-06-05T02:27:55;11.90;99.90
14172;DHT22;7165;52.388;4.928;2023-06-05T02:30:23;11.90;99.90
14172;DHT22;7165;52.388;4.928;2023-06-05T02:32:50;12.00;99.90
14172;DHT22;7165;52.388;4.928;2023-06-05T02:35:22;12.00;99.90
14172;DHT22;7165;52.388;4.928;2023-06-05T02:37:48;12.00;99.90
14172;DHT22;7165;52.388;4.928;2023-06-05T02:40:15;12.00;99.90
14172;DHT22;7165;52.388;4.928;2023-06-05T02:42:42;12.00;99.90
14172;DHT22;7165;52.388;4.928;2023-06-05T02:45:08;12.00;99.90
14172;DHT22;7165;52.388;4.928;2023-06-05T02:47:36;12.00;99.90
14172;DHT22;7165;52.388;4.928;2023-06-05T02:50:03;12.00;99.90
14172;DHT22;7165;52.388;4.928;2023-06-05T02:52:30;12.00;99.90
14172;DHT22;7165;52.388;4.928;2023-06-05T02:54:59;12.00;99.90
14172;DHT22;7165;52.388;4.928;2023-06-05T02:57:26;12.00;99.90
14172;DHT22;7165;52.388;4.928;2023-06-05T02:59:53;12.00;99.90
14172;DHT22;7165;52.388;4.928;2023-06-05T03:02:20;12.00;99.90
14172;DHT22;7165;52.388;4.928;2023-06-05T03:04:48;11.90;99.90
14172;DHT22;7165;52.388;4.928;2023-06-05T03:07:21;11.90;99.90
14172;DHT22;7165;52.388;4.928;2023-06-05T03:09:48;11.90;99.90
14172;DHT22;7165;52.388;4.928;2023-06-05T03:12:14;11.90;99.90
14172;DHT22;7165;52.388;4.928;2023-06-05T03:14:41;11.80;99.90
14172;DHT22;7165;52.388;4.928;2023-06-05T03:17:07;11.80;99.90
14172;DHT22;7165;52.388;4.928;2023-06-05T03:19:34;11.80;99.90
14172;DHT22;7165;52.388;4.928;2023-06-05T03:22:02;11.80;99.90
14172;DHT22;7165;52.388;4.928;2023-06-05T03:24:29;11.80;99.90
14172;DHT22;7165;52.388;4.928;2023-06-05T03:26:55;11.80;99.90
14172;DHT22;7165;52.388;4.928;2023-06-05T03:29:22;11.90;99.90
14172;DHT22;7165;52.388;4.928;2023-06-05T03:31:48;11.90;99.90
14172;DHT22;7165;52.388;4.928;2023-06-05T03:34:15;11.90;99.90
14172;DHT22;7165;52.388;4.928;2023-06-05T03:36:41;11.90;99.90
14172;DHT22;7165;52.388;4.928;2023-06-05T03:39:09;11.90;99.90
14172;DHT22;7165;52.388;4.928;2023-06-05T03:41:37;11.90;99.90
14172;DHT22;7165;52.388;4.928;2023-06-05T03:44:03;11.90;99.90
14172;DHT22;7165;52.388;4.928;2023-06-05T03:46:30;12.00;99.90
14172;DHT22;7165;52.388;4.928;2023-06-05T03:48:56;12.00;99.90
14172;DHT22;7165;52.388;4.928;2023-06-05T03:51:25;12.10;99.90
14172;DHT22;7165;52.388;4.928;2023-06-05T03:53:55;12.10;99.90
14172;DHT22;7165;52.388;4.928;2023-06-05T03:56:24;12.10;99.90
14172;DHT22;7165;52.388;4.928;2023-06-05T03:58:54;12.10;99.90
14172;DHT22;7165;52.388;4.928;2023-06-05T04:01:21;12.20;99.90
14172;DHT22;7165;52.388;4.928;2023-06-05T04:03:48;12.20;99.90
14172;DHT22;7165;52.388;4.928;2023-06-05T04:06:14;12.20;99.90
14172;DHT22;7165;52.388;4.928;2023-06-05T04:08:41;12.30;99.90
14172;DHT22;7165;52.388;4.928;2023-06-05T04:11:07;12.30;99.90
14172;DHT22;7165;52.388;4.928;2023-06-05T04:13:35;12.30;99.90
14172;DHT22;7165;52.388;4.928;2023-06-05T04:16:02;12.30;99.90
14172;DHT22;7165;52.388;4.928;2023-06-05T04:18:29;12.40;99.90
14172;DHT22;7165;52.388;4.928;2023-06-05T04:20:55;12.40;99.90
14172;DHT22;7165;52.388;4.928;2023-06-05T04:23:22;12.40;99.90
14172;DHT22;7165;52.388;4.928;2023-06-05T04:25:48;12.50;99.90
14172;DHT22;7165;52.388;4.928;2023-06-05T04:28:19;12.60;99.90
14172;DHT22;7165;52.388;4.928;2023-06-05T04:30:46;12.60;99.90
14172;DHT22;7165;52.388;4.928;2023-06-05T04:33:14;12.70;99.90
14172;DHT22;7165;52.388;4.928;2023-06-05T04:35:41;12.70;99.90
14172;DHT22;7165;52.388;4.928;2023-06-05T04:38:07;12.70;99.90
14172;DHT22;7165;52.388;4.928;2023-06-05T04:40:34;12.70;99.90
14172;DHT22;7165;52.388;4.928;2023-06-05T04:43:01;12.80;99.90
14172;DHT22;7165;52.388;4.928;2023-06-05T04:45:28;12.80;99.90
14172;DHT22;7165;52.388;4.928;2023-06-05T04:47:56;12.80;99.90
14172;DHT22;7165;52.388;4.928;2023-06-05T04:50:23;12.90;99.90
14172;DHT22;7165;52.388;4.928;2023-06-05T04:52:51;12.90;99.90
14172;DHT22;7165;52.388;4.928;2023-06-05T04:55:18;12.90;99.90
14172;DHT22;7165;52.388;4.928;2023-06-05T04:57:46;12.90;99.90
14172;DHT22;7165;52.388;4.928;2023-06-05T05:00:13;12.90;99.90
14172;DHT22;7165;52.388;4.928;2023-06-05T05:02:40;12.90;99.90
14172;DHT22;7165;52.388;4.928;2023-06-05T05:05:08;12.90;99.90
14172;DHT22;7165;52.388;4.928;2023-06-05T05:07:39;12.90;99.90
14172;DHT22;7165;52.388;4.928;2023-06-05T05:10:07;12.90;99.90
14172;DHT22;7165;52.388;4.928;2023-06-05T05:12:33;12.90;99.90
14172;DHT22;7165;52.388;4.928;2023-06-05T05:15:01;12.90;99.90
14172;DHT22;7165;52.388;4.928;2023-06-05T05:17:27;12.90;99.90
14172;DHT22;7165;52.388;4.928;2023-06-05T05:19:54;12.90;99.90
14172;DHT22;7165;52.388;4.928;2023-06-05T05:22:22;13.00;99.90
14172;DHT22;7165;52.388;4.928;2023-06-05T05:24:49;13.00;99.90
14172;DHT22;7165;52.388;4.928;2023-06-05T05:27:15;13.10;99.90
14172;DHT22;7165;52.388;4.928;2023-06-05T05:29:42;13.10;99.90
14172;DHT22;7165;52.388;4.928;2023-06-05T05:32:08;13.20;99.90
14172;DHT22;7165;52.388;4.928;2023-06-05T05:34:35;13.20;99.90
14172;DHT22;7165;52.388;4.928;2023-06-05T05:37:02;13.30;99.90
14172;DHT22;7165;52.388;4.928;2023-06-05T05:39:30;13.30;99.90
14172;DHT22;7165;52.388;4.928;2023-06-05T05:41:57;13.40;99.90
14172;DHT22;7165;52.388;4.928;2023-06-05T05:44:25;13.40;99.90
14172;DHT22;7165;52.388;4.928;2023-06-05T05:46:51;13.40;99.90
14172;DHT22;7165;52.388;4.928;2023-06-05T05:49:18;13.40;99.90
14172;DHT22;7165;52.388;4.928;2023-06-05T05:51:44;13.50;99.90
14172;DHT22;7165;52.388;4.928;2023-06-05T05:54:11;13.50;99.90
14172;DHT22;7165;52.388;4.928;2023-06-05T05:56:39;13.50;99.90
14172;DHT22;7165;52.388;4.928;2023-06-05T05:59:07;13.60;99.90
14172;DHT22;7165;52.388;4.928;2023-06-05T06:01:34;13.70;99.90
14172;DHT22;7165;52.388;4.928;2023-06-05T06:04:01;13.70;99.90
14172;DHT22;7165;52.388;4.928;2023-06-05T06:06:28;13.80;99.90
14172;DHT22;7165;52.388;4.928;2023-06-05T06:08:55;13.80;99.90
14172;DHT22;7165;52.388;4.928;2023-06-05T06:11:21;13.80;99.90
14172;DHT22;7165;52.388;4.928;2023-06-05T06:13:49;13.80;99.90
14172;DHT22;7165;52.388;4.928;2023-06-05T06:16:16;13.80;99.90
14172;DHT22;7165;52.388;4.928;2023-06-05T06:18:43;13.80;99.90
14172;DHT22;7165;52.388;4.928;2023-06-05T06:21:09;13.90;99.90
14172;DHT22;7165;52.388;4.928;2023-06-05T06:23:36;13.90;99.90
14172;DHT22;7165;52.388;4.928;2023-06-05T06:26:02;13.90;99.90
14172;DHT22;7165;52.388;4.928;2023-06-05T06:28:31;14.00;99.90
14172;DHT22;7165;52.388;4.928;2023-06-05T06:30:59;14.10;99.90
14172;DHT22;7165;52.388;4.928;2023-06-05T06:33:26;14.20;99.90
14172;DHT22;7165;52.388;4.928;2023-06-05T06:35:52;14.30;99.90
14172;DHT22;7165;52.388;4.928;2023-06-05T06:38:19;14.40;99.90
14172;DHT22;7165;52.388;4.928;2023-06-05T06:40:46;14.50;99.90
14172;DHT22;7165;52.388;4.928;2023-06-05T06:43:12;14.50;99.90
14172;DHT22;7165;52.388;4.928;2023-06-05T06:45:39;14.50;99.90
14172;DHT22;7165;52.388;4.928;2023-06-05T06:48:07;14.50;99.90
14172;DHT22;7165;52.388;4.928;2023-06-05T06:50:33;14.60;99.90
14172;DHT22;7165;52.388;4.928;2023-06-05T06:53:00;14.60;99.90
14172;DHT22;7165;52.388;4.928;2023-06-05T06:55:27;14.70;99.90
14172;DHT22;7165;52.388;4.928;2023-06-05T06:58:00;14.70;99.90
14172;DHT22;7165;52.388;4.928;2023-06-05T07:00:27;14.70;99.90
14172;DHT22;7165;52.388;4.928;2023-06-05T07:02:54;14.70;99.90
14172;DHT22;7165;52.388;4.928;2023-06-05T07:05:22;14.60;99.90
14172;DHT22;7165;52.388;4.928;2023-06-05T07:07:49;14.70;99.90
14172;DHT22;7165;52.388;4.928;2023-06-05T07:10:15;14.70;99.90
14172;DHT22;7165;52.388;4.928;2023-06-05T07:12:42;14.90;99.90
14172;DHT22;7165;52.388;4.928;2023-06-05T07:15:09;14.90;99.90
14172;DHT22;7165;52.388;4.928;2023-06-05T07:17:35;15.00;99.90
14172;DHT22;7165;52.388;4.928;2023-06-05T07:20:02;14.90;99.90
14172;DHT22;7165;52.388;4.928;2023-06-05T07:22:32;14.80;99.90
14172;DHT22;7165;52.388;4.928;2023-06-05T07:24:58;14.90;99.90
14172;DHT22;7165;52.388;4.928;2023-06-05T07:27:25;15.10;99.90
14172;DHT22;7165;52.388;4.928;2023-06-05T07:29:53;15.40;99.90
14172;DHT22;7165;52.388;4.928;2023-06-05T07:32:21;15.60;99.90
14172;DHT22;7165;52.388;4.928;2023-06-05T07:34:48;15.50;99.90
14172;DHT22;7165;52.388;4.928;2023-06-05T07:37:14;15.50;99.90
14172;DHT22;7165;52.388;4.928;2023-06-05T07:39:42;15.30;99.90
14172;DHT22;7165;52.388;4.928;2023-06-05T07:42:09;15.50;99.90
14172;DHT22;7165;52.388;4.928;2023-06-05T07:44:35;15.70;99.90
14172;DHT22;7165;52.388;4.928;2023-06-05T07:47:02;15.70;99.90
14172;DHT22;7165;52.388;4.928;2023-06-05T07:49:29;15.70;99.90
14172;DHT22;7165;52.388;4.928;2023-06-05T07:51:56;15.70;99.90
14172;DHT22;7165;52.388;4.928;2023-06-05T07:54:22;15.80;99.90
14172;DHT22;7165;52.388;4.928;2023-06-05T07:56:50;15.60;99.90
14172;DHT22;7165;52.388;4.928;2023-06-05T07:59:17;15.50;99.90
14172;DHT22;7165;52.388;4.928;2023-06-05T08:01:49;15.40;99.90
14172;DHT22;7165;52.388;4.928;2023-06-05T08:04:16;15.40;99.90
14172;DHT22;7165;52.388;4.928;2023-06-05T08:06:42;15.50;99.90
14172;DHT22;7165;52.388;4.928;2023-06-05T08:09:10;15.80;99.90
14172;DHT22;7165;52.388;4.928;2023-06-05T08:11:37;16.20;99.90
14172;DHT22;7165;52.388;4.928;2023-06-05T08:14:05;16.60;99.90
14172;DHT22;7165;52.388;4.928;2023-06-05T08:16:32;16.60;99.90
14172;DHT22;7165;52.388;4.928;2023-06-05T08:18:58;16.60;99.90
14172;DHT22;7165;52.388;4.928;2023-06-05T08:21:25;16.70;99.90
14172;DHT22;7165;52.388;4.928;2023-06-05T08:23:51;16.70;99.90
14172;DHT22;7165;52.388;4.928;2023-06-05T08:26:18;16.80;99.90
14172;DHT22;7165;52.388;4.928;2023-06-05T08:28:45;16.90;99.90
14172;DHT22;7165;52.388;4.928;2023-06-05T08:31:13;17.00;99.90
14172;DHT22;7165;52.388;4.928;2023-06-05T08:33:41;16.90;99.90
14172;DHT22;7165;52.388;4.928;2023-06-05T08:36:07;16.90;99.90
14172;DHT22;7165;52.388;4.928;2023-06-05T08:38:34;17.00;99.90
14172;DHT22;7165;52.388;4.928;2023-06-05T08:41:01;17.10;99.90
14172;DHT22;7165;52.388;4.928;2023-06-05T08:46:35;17.40;99.90
14172;DHT22;7165;52.388;4.928;2023-06-05T08:49:04;17.30;99.90
14172;DHT22;7165;52.388;4.928;2023-06-05T08:51:33;17.40;99.90
14172;DHT22;7165;52.388;4.928;2023-06-05T08:54:02;17.50;99.90
14172;DHT22;7165;52.388;4.928;2023-06-05T08:56:29;17.50;99.90
14172;DHT22;7165;52.388;4.928;2023-06-05T08:58:57;17.50;99.90
14172;DHT22;7165;52.388;4.928;2023-06-05T09:01:24;17.50;99.90
14172;DHT22;7165;52.388;4.928;2023-06-05T09:03:52;17.50;99.90
14172;DHT22;7165;52.388;4.928;2023-06-05T09:06:19;17.50;99.90
14172;DHT22;7165;52.388;4.928;2023-06-05T09:08:45;17.60;99.90
14172;DHT22;7165;52.388;4.928;2023-06-05T09:11:24;17.80;99.90
14172;DHT22;7165;52.388;4.928;2023-06-05T09:13:52;18.00;99.90
14172;DHT22;7165;52.388;4.928;2023-06-05T09:16:19;18.00;99.90
14172;DHT22;7165;52.388;4.928;2023-06-05T09:18:50;18.00;99.90
14172;DHT22;7165;52.388;4.928;2023-06-05T09:21:18;18.20;99.90
14172;DHT22;7165;52.388;4.928;2023-06-05T09:23:45;18.20;99.90
14172;DHT22;7165;52.388;4.928;2023-06-05T09:26:12;18.40;99.90
14172;DHT22;7165;52.388;4.928;2023-06-05T09:28:50;18.40;99.90
14172;DHT22;7165;52.388;4.928;2023-06-05T09:31:19;18.60;99.90
14172;DHT22;7165;52.388;4.928;2023-06-05T09:33:53;18.60;99.90
14172;DHT22;7165;52.388;4.928;2023-06-05T09:36:23;18.70;99.90
14172;DHT22;7165;52.388;4.928;2023-06-05T09:38:51;18.70;99.90
14172;DHT22;7165;52.388;4.928;2023-06-05T09:41:17;18.70;99.90
14172;DHT22;7165;52.388;4.928;2023-06-05T09:43:44;18.80;99.90
14172;DHT22;7165;52.388;4.928;2023-06-05T09:46:11;18.70;99.90
14172;DHT22;7165;52.388;4.928;2023-06-05T09:48:38;18.60;99.90
14172;DHT22;7165;52.388;4.928;2023-06-05T09:51:08;18.60;99.90
14172;DHT22;7165;52.388;4.928;2023-06-05T09:53:37;18.90;99.90
14172;DHT22;7165;52.388;4.928;2023-06-05T09:56:05;19.10;99.90
14172;DHT22;7165;52.388;4.928;2023-06-05T09:58:32;19.30;99.90
14172;DHT22;7165;52.388;4.928;2023-06-05T10:00:59;19.40;99.90
14172;DHT22;7165;52.388;4.928;2023-06-05T10:03:28;19.50;99.90
14172;DHT22;7165;52.388;4.928;2023-06-05T10:05:55;19.40;99.90
14172;DHT22;7165;52.388;4.928;2023-06-05T10:08:22;19.40;99.90
14172;DHT22;7165;52.388;4.928;2023-06-05T10:10:51;19.50;99.90
14172;DHT22;7165;52.388;4.928;2023-06-05T10:13:18;19.80;99.90
14172;DHT22;7165;52.388;4.928;2023-06-05T10:15:45;19.80;99.90
14172;DHT22;7165;52.388;4.928;2023-06-05T10:18:12;19.80;99.90
14172;DHT22;7165;52.388;4.928;2023-06-05T10:20:39;19.90;99.90
14172;DHT22;7165;52.388;4.928;2023-06-05T10:23:05;20.00;99.90
14172;DHT22;7165;52.388;4.928;2023-06-05T10:25:33;19.90;99.90
14172;DHT22;7165;52.388;4.928;2023-06-05T10:28:13;19.90;99.90
14172;DHT22;7165;52.388;4.928;2023-06-05T10:30:51;19.90;99.90
14172;DHT22;7165;52.388;4.928;2023-06-05T10:33:28;20.20;99.90
14172;DHT22;7165;52.388;4.928;2023-06-05T10:35:59;20.20;99.90
14172;DHT22;7165;52.388;4.928;2023-06-05T10:38:27;20.20;99.90
14172;DHT22;7165;52.388;4.928;2023-06-05T10:40:54;20.30;99.90
14172;DHT22;7165;52.388;4.928;2023-06-05T10:43:29;20.40;99.90
14172;DHT22;7165;52.388;4.928;2023-06-05T10:45:57;20.40;99.90
14172;DHT22;7165;52.388;4.928;2023-06-05T10:51:32;20.30;99.90
14172;DHT22;7165;52.388;4.928;2023-06-05T10:54:02;20.20;99.90
14172;DHT22;7165;52.388;4.928;2023-06-05T10:59:15;20.40;99.90
14172;DHT22;7165;52.388;4.928;2023-06-05T11:01:42;20.40;99.90
14172;DHT22;7165;52.388;4.928;2023-06-05T11:04:09;20.40;99.90
14172;DHT22;7165;52.388;4.928;2023-06-05T11:06:36;20.60;99.90
14172;DHT22;7165;52.388;4.928;2023-06-05T11:09:07;20.70;99.90
14172;DHT22;7165;52.388;4.928;2023-06-05T11:14:21;20.60;99.90
14172;DHT22;7165;52.388;4.928;2023-06-05T11:16:47;20.40;99.90
14172;DHT22;7165;52.388;4.928;2023-06-05T11:22:02;20.40;99.90
14172;DHT22;7165;52.388;4.928;2023-06-05T11:24:29;20.40;99.90
14172;DHT22;7165;52.388;4.928;2023-06-05T11:26:56;20.40;99.90
14172;DHT22;7165;52.388;4.928;2023-06-05T11:29:24;20.30;99.90
14172;DHT22;7165;52.388;4.928;2023-06-05T11:31:51;20.50;99.90
14172;DHT22;7165;52.388;4.928;2023-06-05T11:34:25;20.50;99.90
14172;DHT22;7165;52.388;4.928;2023-06-05T11:36:53;20.70;99.90
14172;DHT22;7165;52.388;4.928;2023-06-05T11:39:19;20.90;99.90
14172;DHT22;7165;52.388;4.928;2023-06-05T11:41:47;20.80;99.90
14172;DHT22;7165;52.388;4.928;2023-06-05T11:44:13;20.70;99.90
14172;DHT22;7165;52.388;4.928;2023-06-05T11:46:42;20.70;99.90
14172;DHT22;7165;52.388;4.928;2023-06-05T11:49:21;20.80;99.90
14172;DHT22;7165;52.388;4.928;2023-06-05T11:51:48;21.10;99.90
14172;DHT22;7165;52.388;4.928;2023-06-05T11:54:22;21.10;99.90
14172;DHT22;7165;52.388;4.928;2023-06-05T11:56:49;21.10;99.90
14172;DHT22;7165;52.388;4.928;2023-06-05T11:59:17;21.20;99.90
14172;DHT22;7165;52.388;4.928;2023-06-05T12:01:45;21.30;99.90
14172;DHT22;7165;52.388;4.928;2023-06-05T12:04:13;21.40;99.90
14172;DHT22;7165;52.388;4.928;2023-06-05T12:06:39;21.50;99.90
14172;DHT22;7165;52.388;4.928;2023-06-05T12:09:06;21.60;99.90
14172;DHT22;7165;52.388;4.928;2023-06-05T12:11:34;21.40;99.90
14172;DHT22;7165;52.388;4.928;2023-06-05T12:14:03;21.10;99.90
14172;DHT22;7165;52.388;4.928;2023-06-05T12:16:30;21.00;99.90
14172;DHT22;7165;52.388;4.928;2023-06-05T12:18:59;21.00;99.90
14172;DHT22;7165;52.388;4.928;2023-06-05T12:21:26;20.90;99.90
14172;DHT22;7165;52.388;4.928;2023-06-05T12:24:00;20.80;99.90
14172;DHT22;7165;52.388;4.928;2023-06-05T12:26:27;20.90;99.90
14172;DHT22;7165;52.388;4.928;2023-06-05T12:29:01;21.00;99.90
14172;DHT22;7165;52.388;4.928;2023-06-05T12:31:31;21.10;99.90
14172;DHT22;7165;52.388;4.928;2023-06-05T12:33:59;21.40;99.90
14172;DHT22;7165;52.388;4.928;2023-06-05T12:36:26;21.30;99.90
14172;DHT22;7165;52.388;4.928;2023-06-05T12:38:54;21.20;99.90
14172;DHT22;7165;52.388;4.928;2023-06-05T12:41:20;21.30;99.90
14172;DHT22;7165;52.388;4.928;2023-06-05T12:43:57;21.20;99.90
14172;DHT22;7165;52.388;4.928;2023-06-05T12:46:24;21.30;99.90
14172;DHT22;7165;52.388;4.928;2023-06-05T12:48:50;21.30;99.90
14172;DHT22;7165;52.388;4.928;2023-06-05T12:51:18;21.30;99.90
14172;DHT22;7165;52.388;4.928;2023-06-05T12:53:46;21.30;99.90
14172;DHT22;7165;52.388;4.928;2023-06-05T12:56:12;21.40;99.90
14172;DHT22;7165;52.388;4.928;2023-06-05T12:58:39;21.50;99.90
14172;DHT22;7165;52.388;4.928;2023-06-05T13:01:05;21.50;99.90
14172;DHT22;7165;52.388;4.928;2023-06-05T13:03:32;21.50;99.90
14172;DHT22;7165;52.388;4.928;2023-06-05T13:05:58;21.50;99.90
14172;DHT22;7165;52.388;4.928;2023-06-05T13:08:26;21.30;99.90
14172;DHT22;7165;52.388;4.928;2023-06-05T13:10:53;21.30;99.90
14172;DHT22;7165;52.388;4.928;2023-06-05T13:13:19;21.20;99.90
14172;DHT22;7165;52.388;4.928;2023-06-05T13:15:46;21.30;99.90
14172;DHT22;7165;52.388;4.928;2023-06-05T13:18:13;21.50;99.90
14172;DHT22;7165;52.388;4.928;2023-06-05T13:20:39;21.60;99.90
14172;DHT22;7165;52.388;4.928;2023-06-05T13:23:06;21.60;99.90
14172;DHT22;7165;52.388;4.928;2023-06-05T13:25:35;21.60;99.90
14172;DHT22;7165;52.388;4.928;2023-06-05T13:28:02;21.60;99.90
14172;DHT22;7165;52.388;4.928;2023-06-05T13:30:28;21.60;99.90
14172;DHT22;7165;52.388;4.928;2023-06-05T13:32:55;21.70;99.90
14172;DHT22;7165;52.388;4.928;2023-06-05T13:35:22;21.80;99.90
14172;DHT22;7165;52.388;4.928;2023-06-05T13:37:48;21.80;99.90
14172;DHT22;7165;52.388;4.928;2023-06-05T13:40:16;21.80;99.90
14172;DHT22;7165;52.388;4.928;2023-06-05T13:42:44;21.70;99.90
14172;DHT22;7165;52.388;4.928;2023-06-05T13:45:11;21.80;99.90
14172;DHT22;7165;52.388;4.928;2023-06-05T13:47:37;21.80;99.90
14172;DHT22;7165;52.388;4.928;2023-06-05T13:50:04;21.90;99.90
14172;DHT22;7165;52.388;4.928;2023-06-05T13:52:31;21.90;99.90
14172;DHT22;7165;52.388;4.928;2023-06-05T13:54:57;21.80;99.90
14172;DHT22;7165;52.388;4.928;2023-06-05T13:57:24;21.80;99.90
14172;DHT22;7165;52.388;4.928;2023-06-05T13:59:52;21.90;99.90
14172;DHT22;7165;52.388;4.928;2023-06-05T14:02:21;21.80;99.90
14172;DHT22;7165;52.388;4.928;2023-06-05T14:04:47;21.70;99.90
14172;DHT22;7165;52.388;4.928;2023-06-05T14:07:14;21.70;99.90
14172;DHT22;7165;52.388;4.928;2023-06-05T14:09:40;21.70;99.90
14172;DHT22;7165;52.388;4.928;2023-06-05T14:12:07;21.70;99.90
14172;DHT22;7165;52.388;4.928;2023-06-05T14:14:35;21.80;99.90
14172;DHT22;7165;52.388;4.928;2023-06-05T14:17:03;21.80;99.90
14172;DHT22;7165;52.388;4.928;2023-06-05T14:19:29;21.80;99.90
14172;DHT22;7165;52.388;4.928;2023-06-05T14:21:56;21.90;99.90
14172;DHT22;7165;52.388;4.928;2023-06-05T14:24:23;21.90;99.90
14172;DHT22;7165;52.388;4.928;2023-06-05T14:26:49;21.70;99.90
14172;DHT22;7165;52.388;4.928;2023-06-05T14:29:16;21.70;99.90
14172;DHT22;7165;52.388;4.928;2023-06-05T14:31:42;21.70;99.90
14172;DHT22;7165;52.388;4.928;2023-06-05T14:34:10;21.70;99.90
14172;DHT22;7165;52.388;4.928;2023-06-05T14:36:37;21.80;99.90
14172;DHT22;7165;52.388;4.928;2023-06-05T14:39:03;22.00;99.90
14172;DHT22;7165;52.388;4.928;2023-06-05T14:41:30;22.00;99.90
14172;DHT22;7165;52.388;4.928;2023-06-05T14:43:58;21.90;99.90
14172;DHT22;7165;52.388;4.928;2023-06-05T14:46:24;22.10;99.90
14172;DHT22;7165;52.388;4.928;2023-06-05T14:48:51;22.20;99.90
14172;DHT22;7165;52.388;4.928;2023-06-05T14:51:19;22.20;99.90
14172;DHT22;7165;52.388;4.928;2023-06-05T14:53:45;22.30;99.90
14172;DHT22;7165;52.388;4.928;2023-06-05T14:56:12;22.40;99.90
14172;DHT22;7165;52.388;4.928;2023-06-05T14:58:38;22.50;99.90
14172;DHT22;7165;52.388;4.928;2023-06-05T15:01:05;22.20;99.90
14172;DHT22;7165;52.388;4.928;2023-06-05T15:03:31;22.20;99.90
14172;DHT22;7165;52.388;4.928;2023-06-05T15:05:58;22.30;99.90
14172;DHT22;7165;52.388;4.928;2023-06-05T15:08:26;22.80;99.90
14172;DHT22;7165;52.388;4.928;2023-06-05T15:10:52;23.10;99.90
14172;DHT22;7165;52.388;4.928;2023-06-05T15:13:19;23.30;99.90
14172;DHT22;7165;52.388;4.928;2023-06-05T15:15:47;23.70;99.90
14172;DHT22;7165;52.388;4.928;2023-06-05T15:18:13;24.80;99.90
14172;DHT22;7165;52.388;4.928;2023-06-05T15:20:40;25.20;99.90
14172;DHT22;7165;52.388;4.928;2023-06-05T15:23:06;26.20;99.90
14172;DHT22;7165;52.388;4.928;2023-06-05T15:25:34;28.10;99.80
14172;DHT22;7165;52.388;4.928;2023-06-05T15:28:01;29.10;96.90
14172;DHT22;7165;52.388;4.928;2023-06-05T15:30:27;30.40;94.20
14172;DHT22;7165;52.388;4.928;2023-06-05T15:32:54;31.10;93.30
14172;DHT22;7165;52.388;4.928;2023-06-05T15:35:21;31.90;90.70
14172;DHT22;7165;52.388;4.928;2023-06-05T15:37:47;32.50;87.90
14172;DHT22;7165;52.388;4.928;2023-06-05T15:40:14;32.70;84.60
14172;DHT22;7165;52.388;4.928;2023-06-05T15:42:42;32.10;83.60
14172;DHT22;7165;52.388;4.928;2023-06-05T15:45:09;30.90;84.50
14172;DHT22;7165;52.388;4.928;2023-06-05T15:47:36;29.90;86.70
14172;DHT22;7165;52.388;4.928;2023-06-05T15:50:03;29.10;87.80
14172;DHT22;7165;52.388;4.928;2023-06-05T15:52:31;28.40;90.20
14172;DHT22;7165;52.388;4.928;2023-06-05T15:54:58;28.50;90.30
14172;DHT22;7165;52.388;4.928;2023-06-05T15:57:24;28.10;90.90
14172;DHT22;7165;52.388;4.928;2023-06-05T15:59:52;27.60;91.10